Terminal Aerodrome Forecast
Issued by NWS

Home | Current Version | Previous Version | Text Only | Print | Product List | Glossary On
Versions: 1 2 3 4 5 6 7 8 9 10 11 12 13 14 15 16 17 18 19
000
FTUS43 KDLH 221134
TAFBRD
TAF
KBRD 221134Z 2212/2312 20003KT P6SM SKC
     FM221500 25010KT P6SM FEW050
     FM230000 23005KT P6SM BKN050
     FM230600 33006KT P6SM OVC100
     FM230900 01005KT P6SM OVC015=

USA.gov is the U.S. government's official web portal to all federal, state and local government web resources and services.